General Aviation Weather

Text Reports

Enter one or more of the following location identifiers separated by a space:

Zip Code, Four-Character ICAO or Three-Character IATA airport codes.

METAR - Aviation Routine Weather Report
KCDA - Lyndonville, Vermont
Updated at 1:55 PM GMT on November 26, 2014 (8:55 AM EST):
METAR KCDA 261355Z AUTO 00000KT 10SM SCT034 BKN120 00/M06 A3023 RMK AO2 T00021058
TAF - Terminal Area Forecast
KCDA - Lyndonville, Vermont
Updated at 1:55 PM GMT on November 26, 2014 (8:55 AM EST):
No TAF is currently available for this location.
Decoded:
No decoded TAF is available.
PIREP - Pilot Weather Report
KCDA - Lyndonville, Vermont
Updated at 1:55 PM GMT on November 26, 2014 (8:55 AM EST):
No PIREP is currently available for this location.
AIRMET - Airmens Meteorological Information
KCDA - Lyndonville, Vermont
Updated at 1:55 PM GMT on November 26, 2014 (8:55 AM EST):
No AIRMET is currently available for this location.
SIGMET - Significant Meteorological Information
KCDA - Lyndonville, Vermont
Updated at 1:55 PM GMT on November 26, 2014 (8:55 AM EST):
No SIGMET is currently available for this location.
NOTAM - Notice to Airmen
KCDA - Lyndonville, Vermont
Updated at 1:55 PM GMT on November 26, 2014 (8:55 AM EST):
No NOTAM is currently available for this location.
Forecast Area
KCDA - Lyndonville, Vermont
Updated at 1:55 PM GMT on November 26, 2014 (8:55 AM EST):
No NOTAM is currently available for this location.
Aviation Weather Maps